Time;durP1;ratioP1;P1;durP2;ratioP2;P2;SDS_P1;SDS_P2;PMS_P1;PMS_P2;Temp;Humidity;BMP_temperature;BMP_pressure;BME280_temperature;BME280_humidity;BME280_pressure;Samples;Min_cycle;Max_cycle;Signal;HPM_P1;HPM_P2
2024/04/05 00:03:12;;;;;;;13.50;8.07;;;10.90;99.90;;;;;;5114367;28;20181;-71
2024/04/05 00:06:01;;;;;;;12.90;8.47;;;10.90;99.90;;;;;;5098367;28;20192;-71
2024/04/05 00:09:03;;;;;;;11.80;8.20;;;10.90;99.90;;;;;;5099025;28;20228;-71
2024/04/05 00:11:49;;;;;;;11.60;8.87;;;10.90;99.90;;;;;;5099339;28;20240;-71
2024/04/05 00:15:22;;;;;;;12.43;8.47;;;10.90;99.90;;;;;;5098304;28;20263;-71
2024/04/05 00:18:11;;;;;;;11.93;8.13;;;11.00;99.90;;;;;;5078838;28;20186;-72
2024/04/05 00:21:37;;;;;;;13.77;8.20;;;10.90;99.90;;;;;;5093111;28;20258;-72
2024/04/05 00:24:25;;;;;;;11.47;7.87;;;10.90;99.90;;;;;;5079367;28;20200;-72
2024/04/05 00:30:41;;;;;;;12.37;7.70;;;11.00;99.90;;;;;;5092069;28;20653;-72
2024/04/05 00:33:30;;;;;;;11.53;8.00;;;11.00;99.90;;;;;;5064497;28;20198;-71
2024/04/05 00:36:16;;;;;;;11.90;7.97;;;11.00;99.90;;;;;;5077460;28;20194;-70
2024/04/05 00:43:03;;;;;;;10.27;7.60;;;11.00;99.90;;;;;;5092539;28;20258;-70
2024/04/05 00:46:12;;;;;;;11.87;7.67;;;11.00;99.90;;;;;;5077790;28;20186;-70
2024/04/05 00:49:03;;;;;;;10.93;7.60;;;11.00;99.90;;;;;;5091126;28;20229;-70
2024/04/05 00:51:54;;;;;;;11.47;7.77;;;11.00;99.90;;;;;;5077623;28;20194;-70
2024/04/05 00:54:43;;;;;;;11.13;7.60;;;11.00;99.90;;;;;;5078888;28;20181;-71
2024/04/05 00:57:32;;;;;;;13.80;7.73;;;11.00;99.90;;;;;;5063311;28;20571;-71
2024/04/05 01:00:56;;;;;;;12.37;7.90;;;11.00;99.90;;;;;;5077519;28;20200;-71
2024/04/05 01:03:42;;;;;;;11.87;7.93;;;10.90;99.90;;;;;;5091613;28;20189;-71
2024/04/05 01:06:28;;;;;;;12.80;7.83;;;10.90;99.90;;;;;;5091755;28;20200;-71
2024/04/05 01:09:18;;;;;;;14.30;8.13;;;11.00;99.90;;;;;;5076549;28;20220;-71
2024/04/05 01:12:07;;;;;;;14.70;7.83;;;11.00;99.90;;;;;;5063523;28;20182;-71
2024/04/05 01:15:25;;;;;;;12.93;8.27;;;11.00;99.90;;;;;;5090932;28;20570;-71
2024/04/05 01:18:11;;;;;;;11.67;7.77;;;11.00;99.90;;;;;;5077153;28;20189;-71
2024/04/05 01:21:17;;;;;;;11.87;8.30;;;10.90;99.90;;;;;;5063984;28;20268;-71
2024/04/05 01:24:16;;;;;;;12.57;8.50;;;10.90;99.90;;;;;;5077318;28;20193;-71
2024/04/05 01:27:22;;;;;;;11.73;7.80;;;10.90;99.90;;;;;;5076390;28;20194;-71
2024/04/05 01:30:12;;;;;;;13.87;7.87;;;11.00;99.90;;;;;;5076109;28;20594;-70
2024/04/05 01:36:29;;;;;;;11.50;7.57;;;11.00;99.90;;;;;;5090801;28;20208;-72
2024/04/05 01:39:15;;;;;;;10.67;7.57;;;11.00;99.90;;;;;;5076805;28;20605;-72
2024/04/05 01:42:04;;;;;;;12.43;7.13;;;11.00;99.90;;;;;;5076811;28;20192;-71
2024/04/05 01:44:53;;;;;;;11.27;7.67;;;11.00;99.90;;;;;;5077280;28;20186;-72
2024/04/05 01:47:46;;;;;;;11.53;7.30;;;10.90;99.90;;;;;;5076029;28;20208;-72
2024/04/05 01:50:51;;;;;;;11.37;6.83;;;10.90;99.90;;;;;;5076520;28;20220;-70
2024/04/05 01:53:37;;;;;;;11.10;5.80;;;10.90;99.90;;;;;;5076651;28;20197;-70
2024/04/05 01:56:23;;;;;;;7.57;5.30;;;10.90;99.90;;;;;;5077380;28;20200;-70
2024/04/05 01:59:24;;;;;;;9.13;4.97;;;10.90;99.90;;;;;;5063578;28;20210;-70
2024/04/05 02:02:22;;;;;;;8.00;4.77;;;10.90;99.90;;;;;;5076414;28;20193;-70
2024/04/05 02:05:30;;;;;;;9.50;4.93;;;10.90;99.90;;;;;;5076820;28;20212;-70
2024/04/05 02:08:21;;;;;;;7.07;3.73;;;10.90;99.90;;;;;;5076426;28;20386;-70
2024/04/05 02:11:19;;;;;;;7.37;3.87;;;10.90;99.90;;;;;;5076347;28;20243;-70
2024/04/05 02:14:49;;;;;;;5.27;3.60;;;10.90;99.90;;;;;;5076411;28;20202;-70
2024/04/05 02:17:39;;;;;;;4.40;3.17;;;10.90;99.90;;;;;;5084492;28;20232;-70
2024/04/05 02:20:25;;;;;;;5.00;3.10;;;10.90;99.90;;;;;;5090193;28;20591;-70
2024/04/05 02:23:14;;;;;;;4.17;2.70;;;10.80;99.90;;;;;;5090244;28;20190;-71
2024/04/05 02:29:49;;;;;;;4.43;2.73;;;10.80;99.90;;;;;;5091211;28;20263;-70
2024/04/05 02:32:35;;;;;;;4.63;2.63;;;10.80;99.90;;;;;;5089551;28;20273;-69
2024/04/05 02:35:30;;;;;;;4.83;3.00;;;10.80;99.90;;;;;;5090172;28;20201;-70
2024/04/05 02:41:32;;;;;;;4.80;2.67;;;10.70;99.90;;;;;;5089436;28;20190;-71
2024/04/05 02:44:24;;;;;;;4.93;2.70;;;10.70;99.90;;;;;;5089654;28;20197;-70
2024/04/05 02:47:25;;;;;;;5.57;2.60;;;10.70;99.90;;;;;;5077835;28;20189;-70
2024/04/05 02:50:15;;;;;;;4.50;2.40;;;10.70;99.90;;;;;;5089666;28;20221;-69
2024/04/05 02:53:16;;;;;;;4.20;2.53;;;10.70;99.90;;;;;;5089488;28;20197;-69
2024/04/05 02:56:21;;;;;;;3.40;2.47;;;10.60;99.90;;;;;;5089921;28;20189;-70
2024/04/05 02:59:13;;;;;;;3.20;2.30;;;10.60;99.90;;;;;;5089951;28;20196;-70
2024/04/05 03:02:05;;;;;;;4.07;2.63;;;10.60;99.90;;;;;;5090607;28;20190;-70
2024/04/05 03:04:52;;;;;;;4.40;2.33;;;10.60;99.90;;;;;;5089659;28;20220;-70
2024/04/05 03:08:24;;;;;;;5.93;2.53;;;10.60;99.90;;;;;;5089847;28;20186;-71
2024/04/05 03:11:20;;;;;;;6.27;2.17;;;10.60;99.90;;;;;;5090313;28;20196;-70
2024/04/05 03:14:17;;;;;;;4.10;2.30;;;10.60;99.90;;;;;;5093625;28;20193;-70
2024/04/05 03:17:04;;;;;;;6.17;2.47;;;10.60;99.90;;;;;;5098934;28;20224;-71
2024/04/05 03:19:53;;;;;;;4.30;2.80;;;10.60;99.90;;;;;;5086553;28;20217;-71
2024/04/05 03:26:04;;;;;;;3.60;2.43;;;10.50;99.90;;;;;;5100477;28;20193;-72
2024/04/05 03:32:33;;;;;;;4.70;2.80;;;10.50;99.90;;;;;;5100336;28;20192;-72
2024/04/05 03:35:19;;;;;;;3.77;2.63;;;10.50;99.90;;;;;;5099358;28;20709;-72
2024/04/05 03:38:11;;;;;;;4.27;2.57;;;10.50;99.90;;;;;;5098992;28;20201;-72
2024/04/05 03:44:47;;;;;;;4.50;2.80;;;10.50;99.90;;;;;;5100145;28;20196;-72
2024/04/05 03:51:15;;;;;;;5.77;2.60;;;10.40;99.90;;;;;;5099933;28;20207;-72
2024/04/05 03:58:14;;;;;;;4.77;2.80;;;10.30;99.90;;;;;;5114363;28;20185;-72
2024/04/05 04:01:00;;;;;;;4.60;2.80;;;10.40;99.90;;;;;;5099858;28;20189;-73
2024/04/05 04:07:23;;;;;;;5.97;3.30;;;10.30;99.90;;;;;;5099057;28;20193;-73
2024/04/05 04:10:28;;;;;;;4.20;3.13;;;10.30;99.90;;;;;;5084161;28;20234;-72
2024/04/05 04:13:17;;;;;;;5.10;3.20;;;10.20;99.90;;;;;;5099449;28;20197;-72
2024/04/05 04:16:05;;;;;;;5.67;3.17;;;10.20;99.90;;;;;;5085084;28;20189;-72
2024/04/05 04:18:55;;;;;;;4.00;3.17;;;10.20;99.90;;;;;;5065684;28;20236;-72
2024/04/05 04:22:01;;;;;;;6.33;3.30;;;10.20;99.90;;;;;;5078429;28;20192;-72
2024/04/05 04:28:24;;;;;;;5.47;3.20;;;10.20;99.90;;;;;;5078026;28;20219;-73
2024/04/05 04:31:37;;;;;;;5.83;3.37;;;10.20;99.90;;;;;;5078189;28;20192;-72
2024/04/05 04:35:07;;;;;;;5.97;3.50;;;10.20;99.90;;;;;;5092125;28;20209;-71
2024/04/05 04:38:00;;;;;;;6.97;3.20;;;10.10;99.90;;;;;;5078563;28;20189;-70
2024/04/05 04:41:06;;;;;;;8.50;3.37;;;10.00;99.90;;;;;;5077909;28;20194;-71
2024/04/05 04:43:54;;;;;;;6.27;3.40;;;10.10;99.90;;;;;;5078123;28;20198;-71
2024/04/05 04:46:42;;;;;;;6.27;3.47;;;10.00;99.90;;;;;;5091719;28;20193;-72
2024/04/05 04:50:06;;;;;;;4.57;3.47;;;10.10;99.90;;;;;;5077921;28;20233;-71
2024/04/05 04:52:53;;;;;;;8.23;3.00;;;10.00;99.90;;;;;;5077992;28;20201;-71
2024/04/05 04:55:45;;;;;;;4.03;3.20;;;10.00;99.90;;;;;;5078142;28;20189;-71
2024/04/05 04:58:43;;;;;;;5.40;3.40;;;9.90;99.90;;;;;;5077455;28;20190;-71
2024/04/05 05:01:33;;;;;;;7.23;3.23;;;9.90;99.90;;;;;;5077457;28;20567;-72
2024/04/05 05:04:56;;;;;;;4.60;3.33;;;9.90;99.90;;;;;;5077599;28;20224;-72
2024/04/05 05:11:37;;;;;;;6.27;3.57;;;9.80;99.90;;;;;;5077317;28;20565;-72
2024/04/05 05:18:29;;;;;;;5.43;3.37;;;9.80;99.90;;;;;;5084310;28;20237;-72
2024/04/05 05:21:38;;;;;;;4.80;3.63;;;9.80;99.90;;;;;;5091305;28;20656;-72
2024/04/05 05:25:14;;;;;;;8.43;3.63;;;9.80;99.90;;;;;;5092388;28;20189;-72
2024/04/05 05:28:26;;;;;;;4.40;3.47;;;9.80;99.90;;;;;;5092293;28;20189;-72
2024/04/05 05:32:11;;;;;;;6.63;3.77;;;9.90;99.90;;;;;;5091102;28;20212;-72
2024/04/05 05:35:35;;;;;;;5.83;3.40;;;10.00;99.90;;;;;;5090731;28;20243;-72
2024/04/05 05:38:23;;;;;;;7.13;3.67;;;10.00;99.90;;;;;;5090816;28;20556;-72
2024/04/05 05:41:16;;;;;;;6.07;3.70;;;10.00;99.90;;;;;;5091530;28;20679;-72
2024/04/05 05:47:33;;;;;;;6.17;3.40;;;10.20;99.90;;;;;;5090153;28;20197;-72
2024/04/05 05:51:11;;;;;;;5.83;3.40;;;10.20;99.90;;;;;;5090260;28;20236;-72
2024/04/05 05:53:57;;;;;;;5.23;3.00;;;10.30;99.90;;;;;;5090612;28;20200;-72
2024/04/05 05:57:21;;;;;;;4.30;3.00;;;10.30;99.90;;;;;;5090792;28;20193;-72
2024/04/05 06:00:11;;;;;;;7.23;2.70;;;10.40;99.90;;;;;;5090528;28;20201;-72
2024/04/05 06:03:08;;;;;;;5.30;3.10;;;10.40;99.90;;;;;;5089860;28;20634;-72
2024/04/05 06:06:29;;;;;;;5.27;3.13;;;10.50;99.90;;;;;;5062492;28;20225;-72
2024/04/05 06:09:16;;;;;;;5.93;2.70;;;10.60;99.90;;;;;;5090491;28;20225;-72
2024/04/05 06:15:32;;;;;;;4.70;2.67;;;10.90;99.90;;;;;;5089732;28;20487;-72
2024/04/05 06:18:18;;;;;;;7.27;2.70;;;11.00;99.90;;;;;;5076218;28;20236;-72
2024/04/05 06:21:45;;;;;;;4.03;2.57;;;11.00;99.90;;;;;;5077361;28;20185;-73
2024/04/05 06:24:34;;;;;;;5.90;2.27;;;11.00;99.90;;;;;;5075987;28;20196;-73
2024/04/05 06:27:39;;;;;;;5.73;2.50;;;11.00;99.90;;;;;;5077223;28;20201;-73
2024/04/05 06:30:26;;;;;;;4.77;2.20;;;11.00;99.90;;;;;;5089693;28;20225;-72
2024/04/05 06:33:37;;;;;;;5.20;2.37;;;11.10;99.90;;;;;;5076128;28;20193;-72
2024/04/05 06:36:23;;;;;;;2.83;1.97;;;11.10;99.90;;;;;;5090641;28;20197;-72
2024/04/05 06:39:16;;;;;;;3.60;2.30;;;11.30;99.90;;;;;;5090068;28;20274;-72
2024/04/05 06:42:02;;;;;;;4.63;2.30;;;11.30;99.90;;;;;;5075971;28;20200;-72
2024/04/05 06:44:55;;;;;;;4.03;2.30;;;11.50;99.90;;;;;;5076021;28;20542;-72
2024/04/05 06:48:01;;;;;;;5.57;2.40;;;11.50;99.90;;;;;;5079687;28;20623;-72
2024/04/05 06:50:53;;;;;;;5.37;2.67;;;11.60;99.90;;;;;;5094115;28;20216;-72
2024/04/05 06:53:55;;;;;;;7.23;2.43;;;11.50;99.90;;;;;;5079507;28;20654;-73
2024/04/05 06:57:25;;;;;;;4.03;2.40;;;11.50;99.90;;;;;;5080442;28;20189;-72
2024/04/05 07:00:15;;;;;;;4.90;2.40;;;11.50;99.90;;;;;;5079729;28;20583;-73
2024/04/05 07:03:06;;;;;;;5.43;2.57;;;11.50;99.90;;;;;;5079822;28;20284;-73
2024/04/05 07:06:15;;;;;;;4.57;2.47;;;11.60;99.90;;;;;;5079792;28;20219;-73
2024/04/05 07:09:03;;;;;;;4.00;2.57;;;11.70;99.90;;;;;;5080136;28;20228;-72
2024/04/05 07:12:14;;;;;;;4.37;2.37;;;11.70;99.90;;;;;;5092944;28;20189;-73
2024/04/05 07:15:13;;;;;;;3.97;2.40;;;11.90;99.90;;;;;;5080219;28;20186;-73
2024/04/05 07:18:02;;;;;;;5.73;2.60;;;12.10;99.90;;;;;;5093382;28;20221;-73
2024/04/05 07:21:09;;;;;;;5.00;2.70;;;12.30;99.90;;;;;;5093646;28;20216;-73
2024/04/05 07:24:04;;;;;;;5.27;2.23;;;12.50;99.90;;;;;;5093516;28;20215;-73
2024/04/05 07:30:22;;;;;;;3.30;2.40;;;12.50;99.90;;;;;;5092513;28;20217;-72
2024/04/05 07:33:09;;;;;;;3.67;2.43;;;12.50;99.90;;;;;;5093456;28;20213;-73
2024/04/05 07:36:01;;;;;;;3.47;2.27;;;12.50;99.90;;;;;;5079675;28;20205;-73
2024/04/05 07:39:25;;;;;;;6.43;2.30;;;12.40;99.90;;;;;;5092880;28;20198;-73
2024/04/05 07:42:30;;;;;;;3.37;2.27;;;12.70;99.90;;;;;;5079629;28;20197;-72
2024/04/05 07:45:17;;;;;;;3.90;2.30;;;12.80;99.90;;;;;;5092200;28;20185;-73
2024/04/05 07:48:22;;;;;;;5.03;2.27;;;12.90;99.90;;;;;;5079534;28;20194;-73
2024/04/05 07:51:10;;;;;;;5.47;2.10;;;13.10;99.90;;;;;;5092466;28;20185;-73
2024/04/05 07:54:45;;;;;;;2.50;2.17;;;12.90;99.90;;;;;;5093796;28;20570;-73
2024/04/05 07:57:32;;;;;;;3.83;2.07;;;13.10;99.90;;;;;;5079031;28;20200;-73
2024/04/05 08:00:20;;;;;;;3.20;2.20;;;13.20;99.90;;;;;;5078324;28;20709;-72
2024/04/05 08:03:06;;;;;;;4.03;1.90;;;13.10;99.90;;;;;;5092223;28;20194;-73
2024/04/05 08:05:53;;;;;;;3.60;2.13;;;13.20;99.90;;;;;;5092699;28;20215;-73
2024/04/05 08:08:40;;;;;;;6.93;2.30;;;13.40;99.90;;;;;;5092414;28;20190;-73
2024/04/05 08:11:26;;;;;;;3.23;1.90;;;13.50;99.90;;;;;;5092265;28;20576;-74
2024/04/05 08:14:13;;;;;;;3.17;1.80;;;13.60;99.90;;;;;;5092230;28;20207;-74
2024/04/05 08:20:41;;;;;;;3.70;1.97;;;14.30;99.90;;;;;;5078815;28;20209;-73
2024/04/05 08:23:30;;;;;;;4.17;1.90;;;14.20;99.90;;;;;;5078710;28;20204;-73
2024/04/05 08:26:20;;;;;;;3.10;1.70;;;14.20;99.90;;;;;;5078828;28;20197;-73
2024/04/05 08:29:06;;;;;;;6.13;1.80;;;13.90;99.90;;;;;;5077714;28;20221;-73
2024/04/05 08:32:30;;;;;;;2.97;1.67;;;13.90;99.90;;;;;;5078190;28;20190;-73
2024/04/05 08:35:40;;;;;;;4.07;1.80;;;13.90;99.90;;;;;;5077808;28;20217;-73
2024/04/05 08:38:26;;;;;;;3.17;1.80;;;13.80;99.90;;;;;;5077777;28;20199;-74
2024/04/05 08:41:17;;;;;;;3.50;1.73;;;13.80;99.90;;;;;;5078424;28;20189;-73
2024/04/05 08:44:03;;;;;;;3.80;1.50;;;13.60;99.90;;;;;;5077867;28;20190;-74
2024/04/05 08:47:30;;;;;;;4.97;1.80;;;13.80;99.90;;;;;;5078246;28;20203;-73
2024/04/05 08:50:17;;;;;;;3.40;1.50;;;14.10;99.90;;;;;;5078527;28;20239;-73
2024/04/05 08:53:08;;;;;;;3.03;1.60;;;14.20;99.90;;;;;;5078350;28;20198;-73
2024/04/05 08:56:38;;;;;;;4.17;1.67;;;14.30;99.90;;;;;;5092900;28;20178;-73
2024/04/05 09:00:15;;;;;;;4.20;1.50;;;14.40;99.90;;;;;;5092906;28;20185;-73
2024/04/05 09:03:03;;;;;;;3.07;1.60;;;14.60;99.90;;;;;;5078056;28;20192;-73
2024/04/05 09:05:50;;;;;;;3.87;1.67;;;14.70;99.90;;;;;;5076909;28;20219;-73
2024/04/05 09:12:52;;;;;;;3.07;1.30;;;14.90;99.90;;;;;;5018070;28;20631;-74
2024/04/05 09:16:00;;;;;;;4.93;1.50;;;14.60;99.90;;;;;;5030829;28;20229;-73
2024/04/05 09:19:23;;;;;;;5.60;1.60;;;14.70;99.90;;;;;;5043254;28;20226;-73
2024/04/05 09:23:08;;;;;;;2.27;1.53;;;14.70;99.90;;;;;;5036936;28;20190;-72
2024/04/05 09:26:33;;;;;;;4.83;1.40;;;14.60;99.90;;;;;;5022431;28;20239;-73
2024/04/05 09:29:46;;;;;;;2.77;1.33;;;14.30;99.90;;;;;;5036811;28;20245;-73
2024/04/05 09:32:57;;;;;;;5.13;1.57;;;14.70;99.90;;;;;;5049908;28;20193;-73
2024/04/05 09:36:06;;;;;;;5.17;1.40;;;14.80;99.90;;;;;;5035824;28;20231;-74
2024/04/05 09:38:52;;;;;;;2.57;1.40;;;14.60;99.90;;;;;;5036728;28;20716;-73
2024/04/05 09:41:42;;;;;;;2.53;1.50;;;14.70;99.90;;;;;;5036742;28;20268;-73
2024/04/05 09:45:00;;;;;;;2.57;1.53;;;14.90;99.90;;;;;;5089597;28;20200;-73
2024/04/05 09:48:02;;;;;;;2.83;1.10;;;15.10;99.90;;;;;;5090780;28;20205;-73
2024/04/05 09:51:29;;;;;;;2.70;1.00;;;15.40;99.90;;;;;;5090407;28;20228;-73
2024/04/05 09:54:24;;;;;;;1.57;0.97;;;15.20;99.90;;;;;;5090662;28;20535;-73
2024/04/05 10:01:26;;;;;;;1.90;1.20;;;15.10;99.90;;;;;;5090075;28;20198;-73
2024/04/05 10:04:40;;;;;;;2.97;1.20;;;15.00;99.90;;;;;;5090826;28;20212;-73
2024/04/05 10:10:44;;;;;;;4.90;1.47;;;15.10;99.90;;;;;;5089987;28;20217;-74
2024/04/05 10:13:31;;;;;;;3.90;1.50;;;15.40;99.90;;;;;;5090500;28;20214;-73
2024/04/05 10:16:42;;;;;;;3.77;1.60;;;15.10;99.90;;;;;;5089208;28;20189;-73
2024/04/05 10:20:09;;;;;;;3.20;1.60;;;14.70;99.90;;;;;;5090638;28;20223;-73
2024/04/05 10:23:37;;;;;;;4.70;1.40;;;14.70;99.90;;;;;;5075856;28;20242;-73
2024/04/05 10:26:24;;;;;;;4.80;1.60;;;14.80;99.90;;;;;;4995521;28;20199;-73
2024/04/05 10:29:12;;;;;;;1.80;1.43;;;14.50;99.90;;;;;;4995405;28;20220;-73
2024/04/05 10:32:20;;;;;;;2.77;1.50;;;14.50;99.90;;;;;;5008646;28;20204;-74
2024/04/05 10:35:18;;;;;;;3.17;1.70;;;14.30;99.90;;;;;;5008565;28;20733;-73
2024/04/05 10:38:07;;;;;;;3.47;1.80;;;14.60;99.90;;;;;;5009484;28;20203;-74
2024/04/05 10:41:03;;;;;;;4.97;1.70;;;14.80;99.90;;;;;;5008284;28;20641;-74
2024/04/05 10:44:01;;;;;;;5.33;1.83;;;15.20;99.90;;;;;;4995284;28;20195;-74
2024/04/05 10:47:21;;;;;;;3.97;1.50;;;14.80;99.90;;;;;;4996413;28;20195;-74
2024/04/05 10:50:16;;;;;;;3.90;1.70;;;14.90;99.90;;;;;;4982319;28;20242;-74
2024/04/05 10:53:04;;;;;;;4.07;1.50;;;15.30;99.90;;;;;;4996812;28;20239;-74
2024/04/05 10:55:53;;;;;;;3.43;1.80;;;15.90;99.90;;;;;;4995661;28;20207;-73
2024/04/05 10:58:52;;;;;;;4.93;1.70;;;16.50;99.90;;;;;;4983099;28;20206;-73
2024/04/05 11:01:45;;;;;;;5.07;1.50;;;17.00;99.90;;;;;;5009864;28;20196;-74
2024/04/05 11:04:31;;;;;;;3.37;1.43;;;17.80;99.90;;;;;;5089743;28;20231;-73
2024/04/05 11:07:18;;;;;;;3.50;1.47;;;18.50;99.90;;;;;;5075869;28;20657;-74
2024/04/05 11:10:14;;;;;;;2.97;1.30;;;19.10;99.90;;;;;;5075930;28;20213;-74
2024/04/05 11:13:18;;;;;;;3.60;1.30;;;19.40;99.90;;;;;;5077533;28;20198;-74
2024/04/05 11:16:27;;;;;;;3.67;1.40;;;18.90;99.90;;;;;;5074773;28;20565;-74
2024/04/05 11:19:24;;;;;;;3.23;1.50;;;18.00;99.90;;;;;;5079457;28;20251;-74
2024/04/05 11:22:14;;;;;;;5.13;1.47;;;17.60;99.90;;;;;;5075515;28;20231;-74
2024/04/05 11:25:00;;;;;;;4.47;1.70;;;17.00;99.90;;;;;;5090052;28;20194;-74
2024/04/05 11:28:11;;;;;;;4.40;1.60;;;16.80;99.90;;;;;;5088847;28;20247;-74
2024/04/05 11:34:42;;;;;;;5.87;2.00;;;16.70;99.90;;;;;;5092981;28;20699;-74
2024/04/05 11:37:31;;;;;;;5.10;1.90;;;17.00;99.90;;;;;;5092808;28;20234;-74
2024/04/05 11:40:19;;;;;;;5.70;1.80;;;16.90;99.90;;;;;;5080064;28;20190;-74
2024/04/05 11:43:21;;;;;;;5.37;1.90;;;17.10;99.90;;;;;;5092914;28;20718;-74
2024/04/05 11:46:48;;;;;;;4.27;1.90;;;17.30;99.90;;;;;;5093699;28;20219;-74
2024/04/05 11:53:17;;;;;;;5.03;1.70;;;17.60;99.90;;;;;;5092259;28;20198;-74
2024/04/05 11:56:04;;;;;;;5.37;1.83;;;17.10;99.90;;;;;;5092341;28;20197;-74
2024/04/05 12:02:29;;;;;;;5.50;1.80;;;16.80;99.90;;;;;;5094122;28;20272;-74
2024/04/05 12:05:46;;;;;;;4.80;2.00;;;16.50;99.90;;;;;;5092675;28;20698;-74
2024/04/05 12:08:36;;;;;;;4.33;1.83;;;16.20;99.90;;;;;;5093254;28;20185;-74
2024/04/05 12:11:52;;;;;;;5.93;2.00;;;16.20;99.90;;;;;;5092414;28;20559;-74
2024/04/05 12:18:21;;;;;;;5.77;2.00;;;16.40;99.90;;;;;;5094272;28;20192;-74
2024/04/05 12:21:08;;;;;;;3.87;1.97;;;16.20;99.90;;;;;;5098771;28;20606;-74
2024/04/05 12:23:54;;;;;;;7.23;1.97;;;16.00;99.90;;;;;;5085199;28;20192;-74
2024/04/05 12:26:40;;;;;;;3.63;1.70;;;15.90;99.90;;;;;;5099127;28;20207;-74
2024/04/05 12:29:27;;;;;;;6.03;1.90;;;16.00;99.90;;;;;;5099070;28;20216;-74
2024/04/05 12:32:31;;;;;;;5.73;2.17;;;15.90;99.90;;;;;;5085741;28;20193;-74
2024/04/05 12:35:53;;;;;;;6.07;1.90;;;16.00;99.90;;;;;;5085067;28;20340;-74
2024/04/05 12:38:40;;;;;;;6.30;2.20;;;16.00;99.90;;;;;;5099496;28;20189;-74
2024/04/05 12:41:27;;;;;;;4.00;1.70;;;15.80;99.90;;;;;;5098026;28;20578;-74
2024/04/05 12:44:13;;;;;;;6.90;2.00;;;15.70;99.90;;;;;;5097347;28;20566;-74
2024/04/05 12:47:02;;;;;;;5.10;2.10;;;15.70;99.90;;;;;;5084544;28;20189;-74
2024/04/05 12:49:51;;;;;;;7.30;2.00;;;15.60;99.90;;;;;;5097637;28;20208;-74
2024/04/05 12:52:43;;;;;;;4.80;2.07;;;15.60;99.90;;;;;;5098092;28;20192;-75
2024/04/05 12:55:33;;;;;;;4.73;2.07;;;15.70;99.90;;;;;;5098149;28;20591;-74
2024/04/05 12:58:31;;;;;;;5.33;2.10;;;15.80;99.90;;;;;;5097936;28;20222;-74
2024/04/05 13:01:18;;;;;;;5.67;2.00;;;15.60;99.90;;;;;;5097532;28;20183;-74
2024/04/05 13:04:04;;;;;;;3.93;1.63;;;15.50;99.90;;;;;;5097855;28;20216;-74
2024/04/05 13:06:56;;;;;;;4.23;1.90;;;15.50;99.90;;;;;;5098372;28;20188;-74
2024/04/05 13:09:58;;;;;;;7.13;2.27;;;15.50;99.90;;;;;;5097144;28;20226;-75
2024/04/05 13:13:08;;;;;;;6.03;1.77;;;15.70;99.90;;;;;;5097232;28;20199;-74
2024/04/05 13:16:28;;;;;;;2.73;1.70;;;15.70;99.90;;;;;;5097212;28;20201;-74
2024/04/05 13:19:15;;;;;;;5.47;1.90;;;15.60;99.90;;;;;;5091065;28;20711;-74
2024/04/05 13:22:04;;;;;;;5.67;2.10;;;15.60;99.90;;;;;;5090986;28;20189;-74
2024/04/05 13:25:12;;;;;;;3.67;1.83;;;15.70;99.90;;;;;;5091147;28;20190;-74
2024/04/05 13:27:58;;;;;;;5.50;1.60;;;15.80;99.90;;;;;;5090334;28;20293;-74
2024/04/05 13:30:45;;;;;;;5.47;1.80;;;15.90;99.90;;;;;;5090339;28;20220;-74
2024/04/05 13:33:31;;;;;;;5.30;1.80;;;16.10;99.90;;;;;;5077409;28;20218;-74
2024/04/05 13:36:26;;;;;;;3.77;2.00;;;16.30;99.90;;;;;;5090615;28;20321;-74
2024/04/05 13:39:13;;;;;;;6.13;2.03;;;16.40;99.90;;;;;;5076670;28;20323;-74
2024/04/05 13:41:59;;;;;;;4.33;1.60;;;16.40;99.90;;;;;;5076974;28;20190;-74
2024/04/05 13:45:23;;;;;;;5.10;1.60;;;16.30;99.90;;;;;;5091753;28;20637;-74
2024/04/05 13:48:09;;;;;;;4.00;1.60;;;16.20;99.90;;;;;;5090341;28;20236;-74
2024/04/05 13:50:56;;;;;;;3.77;1.67;;;16.10;99.90;;;;;;5090278;28;20566;-74
2024/04/05 13:53:43;;;;;;;4.93;2.07;;;16.10;99.90;;;;;;5076694;28;20182;-74
2024/04/05 13:56:38;;;;;;;3.67;1.70;;;16.10;99.90;;;;;;5090989;28;20680;-74
2024/04/05 13:59:31;;;;;;;6.27;2.20;;;16.00;99.90;;;;;;5090902;28;20593;-75
2024/04/05 14:02:23;;;;;;;5.33;1.50;;;16.30;99.90;;;;;;5076167;28;20539;-74
2024/04/05 14:05:15;;;;;;;2.97;1.60;;;16.40;99.90;;;;;;5076158;28;20687;-74
2024/04/05 14:08:41;;;;;;;4.20;1.20;;;16.50;99.90;;;;;;5076871;28;20207;-75
2024/04/05 14:11:28;;;;;;;3.60;1.30;;;16.80;99.90;;;;;;5090054;28;20194;-74
2024/04/05 14:14:23;;;;;;;3.93;1.10;;;17.10;99.90;;;;;;5089641;28;20207;-74
2024/04/05 14:17:34;;;;;;;2.63;1.10;;;17.70;99.90;;;;;;5090389;28;20200;-74
2024/04/05 14:20:49;;;;;;;1.80;0.90;;;18.00;99.90;;;;;;5091510;28;20229;-74
2024/04/05 14:23:38;;;;;;;4.43;1.00;;;18.50;99.90;;;;;;5075694;28;20194;-75
